Time;durP1;ratioP1;P1;durP2;ratioP2;P2;SDS_P1;SDS_P2;PMS_P1;PMS_P2;Temp;Humidity;BMP_temperature;BMP_pressure;BME280_temperature;BME280_humidity;BME280_pressure;Samples;Min_cycle;Max_cycle;Signal;HPM_P1;HPM_P2
2021/01/17 00:00:37;;;;;;;27.50;11.27;;;-9.70;99.90;;;;;;4350856;33;20141;-73
2021/01/17 00:03:04;;;;;;;30.90;11.37;;;-9.80;99.90;;;;;;4351219;33;20222;-73
2021/01/17 00:05:31;;;;;;;31.80;10.87;;;-9.70;99.90;;;;;;4349696;33;20141;-74
2021/01/17 00:07:58;;;;;;;32.27;11.90;;;-10.00;99.90;;;;;;4349384;33;20421;-73
2021/01/17 00:10:27;;;;;;;34.33;11.60;;;-10.10;99.90;;;;;;4349770;33;20155;-74
2021/01/17 00:12:55;;;;;;;34.13;12.07;;;-10.10;99.90;;;;;;4349720;33;20169;-74
2021/01/17 00:15:23;;;;;;;27.37;11.17;;;-10.10;99.90;;;;;;4349059;33;20140;-73
2021/01/17 00:17:50;;;;;;;27.07;10.73;;;-10.10;99.90;;;;;;4350519;33;20179;-74
2021/01/17 00:20:18;;;;;;;27.23;10.87;;;-10.20;99.90;;;;;;4350120;33;20198;-73
2021/01/17 00:22:46;;;;;;;25.63;10.40;;;-10.30;99.90;;;;;;4350287;33;20164;-73
2021/01/17 00:25:15;;;;;;;24.37;9.60;;;-10.20;99.90;;;;;;4349012;33;20544;-74
2021/01/17 00:27:42;;;;;;;26.53;9.77;;;-10.20;99.90;;;;;;4349471;33;20160;-73
2021/01/17 00:30:10;;;;;;;26.13;10.63;;;-10.20;99.90;;;;;;4349442;33;20155;-73
2021/01/17 00:32:37;;;;;;;34.70;11.40;;;-10.20;99.90;;;;;;4349355;33;20176;-73
2021/01/17 00:35:06;;;;;;;30.87;11.23;;;-10.30;99.90;;;;;;4348986;33;20231;-74
2021/01/17 00:37:33;;;;;;;27.10;10.93;;;-10.30;99.90;;;;;;4349433;33;20179;-74
2021/01/17 00:40:00;;;;;;;32.50;11.10;;;-10.40;99.90;;;;;;4348703;33;20216;-73
2021/01/17 00:42:26;;;;;;;26.67;9.87;;;-10.50;99.90;;;;;;4348901;33;20156;-73
2021/01/17 00:44:53;;;;;;;25.80;10.97;;;-10.50;99.90;;;;;;4349246;33;20157;-73
2021/01/17 00:47:21;;;;;;;30.80;10.57;;;-10.60;99.90;;;;;;4349309;33;20175;-73
2021/01/17 00:49:47;;;;;;;30.23;10.83;;;-10.70;99.90;;;;;;4349569;33;20160;-74
2021/01/17 00:52:18;;;;;;;27.67;11.27;;;-10.50;99.90;;;;;;4352463;33;20183;-74
2021/01/17 00:54:45;;;;;;;28.23;11.27;;;-10.50;99.90;;;;;;4354785;33;20167;-73
2021/01/17 00:57:12;;;;;;;35.10;11.97;;;-10.60;99.90;;;;;;4354075;33;20178;-73
2021/01/17 00:59:39;;;;;;;24.53;9.97;;;-10.70;99.90;;;;;;4354189;33;20198;-73
2021/01/17 01:02:06;;;;;;;24.10;9.90;;;-10.70;99.90;;;;;;4354032;33;20148;-74
2021/01/17 01:04:33;;;;;;;28.50;10.37;;;-10.60;99.90;;;;;;4353939;33;20153;-74
2021/01/17 01:07:01;;;;;;;29.60;10.93;;;-10.50;99.90;;;;;;4354453;33;20184;-73
2021/01/17 01:09:27;;;;;;;26.63;10.50;;;-10.50;99.90;;;;;;4354138;33;20191;-73
2021/01/17 01:11:54;;;;;;;32.03;12.30;;;-10.40;99.90;;;;;;4353860;33;20202;-74
2021/01/17 01:14:21;;;;;;;30.47;11.23;;;-10.40;99.90;;;;;;4354047;33;20161;-74
2021/01/17 01:16:51;;;;;;;29.17;11.10;;;-10.30;99.90;;;;;;4354146;33;20477;-74
2021/01/17 01:19:19;;;;;;;29.53;9.90;;;-10.20;99.90;;;;;;4354284;33;20156;-73
2021/01/17 01:21:45;;;;;;;26.30;9.87;;;-10.20;99.90;;;;;;4354050;33;20393;-74
2021/01/17 01:24:13;;;;;;;29.03;10.33;;;-10.20;99.90;;;;;;4353974;33;20183;-74
2021/01/17 01:26:45;;;;;;;28.63;10.90;;;-10.20;99.90;;;;;;4354038;33;20171;-73
2021/01/17 01:29:12;;;;;;;28.43;11.03;;;-10.40;99.90;;;;;;4354940;33;20191;-74
2021/01/17 01:31:41;;;;;;;27.70;10.07;;;-10.50;99.90;;;;;;4353421;33;20489;-74
2021/01/17 01:34:08;;;;;;;25.63;10.30;;;-10.60;99.90;;;;;;4353828;33;20152;-74
2021/01/17 01:36:37;;;;;;;30.73;10.70;;;-10.60;99.90;;;;;;4353810;33;20190;-74
2021/01/17 01:39:05;;;;;;;28.10;10.30;;;-10.60;99.90;;;;;;4353636;33;20215;-74
2021/01/17 01:41:34;;;;;;;27.70;10.57;;;-10.60;99.90;;;;;;4353646;33;20408;-74
2021/01/17 01:44:01;;;;;;;27.60;9.63;;;-10.90;99.90;;;;;;4353564;33;20148;-74
2021/01/17 01:46:30;;;;;;;26.97;10.17;;;-10.90;99.90;;;;;;4353113;33;20148;-74
2021/01/17 01:49:00;;;;;;;30.43;10.10;;;-11.00;99.90;;;;;;4354338;33;20404;-74
2021/01/17 01:51:27;;;;;;;34.63;10.67;;;-10.80;99.90;;;;;;4353935;33;20152;-74
2021/01/17 01:53:55;;;;;;;21.67;8.70;;;-10.70;99.90;;;;;;4354637;33;20184;-74
2021/01/17 01:56:23;;;;;;;25.70;9.97;;;-10.60;99.90;;;;;;4354997;33;20441;-74
2021/01/17 01:58:54;;;;;;;21.67;9.03;;;-10.60;99.90;;;;;;4352980;33;20418;-74
2021/01/17 02:01:22;;;;;;;22.90;9.43;;;-10.50;99.90;;;;;;4353785;33;20209;-73
2021/01/17 02:03:52;;;;;;;23.13;9.03;;;-10.50;99.90;;;;;;4350252;33;20462;-74
2021/01/17 02:06:20;;;;;;;28.10;9.47;;;-10.50;99.90;;;;;;4351314;33;20192;-73
2021/01/17 02:09:20;;;;;;;27.33;10.17;;;-10.50;99.90;;;;;;4351877;33;20141;-74
2021/01/17 02:12:03;;;;;;;25.63;8.90;;;-10.60;99.90;;;;;;4304991;33;20208;-74
2021/01/17 02:14:52;;;;;;;28.60;9.67;;;-10.60;99.90;;;;;;4305102;33;20161;-74
2021/01/17 02:17:20;;;;;;;26.07;9.40;;;-10.50;99.90;;;;;;4305391;33;20467;-74
2021/01/17 02:20:07;;;;;;;24.47;9.73;;;-10.70;99.90;;;;;;4304812;33;20539;-74
2021/01/17 02:22:46;;;;;;;23.50;9.13;;;-10.70;99.90;;;;;;4305370;33;20189;-74
2021/01/17 02:25:13;;;;;;;29.77;9.40;;;-10.60;99.90;;;;;;4304818;33;20208;-73
2021/01/17 02:27:43;;;;;;;22.57;9.43;;;-10.60;99.90;;;;;;4304415;33;20586;-74
2021/01/17 02:30:12;;;;;;;22.90;9.03;;;-10.60;99.90;;;;;;4305165;33;20253;-74
2021/01/17 02:33:04;;;;;;;25.77;9.60;;;-10.50;99.90;;;;;;4304344;33;20172;-74
2021/01/17 02:35:34;;;;;;;24.57;9.50;;;-10.50;99.90;;;;;;4304991;33;20154;-74
2021/01/17 02:38:21;;;;;;;26.27;10.10;;;-10.50;99.90;;;;;;4304690;33;20185;-73
2021/01/17 02:41:16;;;;;;;24.67;9.43;;;-10.70;99.90;;;;;;4304139;33;20141;-73
2021/01/17 02:43:45;;;;;;;27.70;8.97;;;-10.80;99.90;;;;;;4305223;33;20169;-73
2021/01/17 02:46:12;;;;;;;20.90;8.57;;;-11.00;99.90;;;;;;4304600;33;20162;-73
2021/01/17 02:48:38;;;;;;;22.43;8.73;;;-11.10;99.90;;;;;;4324002;33;20191;-73
2021/01/17 02:51:06;;;;;;;26.73;9.73;;;-11.20;99.90;;;;;;4351982;33;20467;-73
2021/01/17 02:53:41;;;;;;;27.17;9.03;;;-11.30;99.90;;;;;;4350875;33;20183;-73
2021/01/17 02:56:12;;;;;;;22.27;8.97;;;-11.30;99.90;;;;;;4350960;33;20170;-73
2021/01/17 02:58:42;;;;;;;24.63;10.27;;;-11.30;99.90;;;;;;4352145;33;20207;-73
2021/01/17 03:01:12;;;;;;;26.20;10.37;;;-11.30;99.90;;;;;;4351049;33;20152;-74
2021/01/17 03:03:42;;;;;;;25.37;9.10;;;-11.20;99.90;;;;;;4350580;33;20144;-73
2021/01/17 03:06:10;;;;;;;24.30;9.50;;;-11.40;99.90;;;;;;4352071;33;20157;-74
2021/01/17 03:08:37;;;;;;;25.13;9.50;;;-11.40;99.90;;;;;;4350761;33;20479;-73
2021/01/17 03:11:07;;;;;;;27.07;9.00;;;-11.30;99.90;;;;;;4351083;33;20227;-74
2021/01/17 03:13:37;;;;;;;24.57;9.17;;;-11.30;99.90;;;;;;4350030;33;20180;-73
2021/01/17 03:16:07;;;;;;;27.50;9.87;;;-11.30;99.90;;;;;;4350285;33;20506;-73
2021/01/17 03:18:44;;;;;;;27.37;9.87;;;-11.20;99.90;;;;;;4349691;33;20199;-75
2021/01/17 03:21:15;;;;;;;27.40;9.70;;;-11.20;99.90;;;;;;4349027;33;20184;-73
2021/01/17 03:23:42;;;;;;;21.00;9.20;;;-11.30;99.90;;;;;;4349960;33;20230;-73
2021/01/17 03:26:09;;;;;;;22.67;8.83;;;-11.40;99.90;;;;;;4350623;33;20195;-74
2021/01/17 03:28:36;;;;;;;22.07;9.27;;;-11.40;99.90;;;;;;4350115;33;20207;-74
2021/01/17 03:31:02;;;;;;;25.10;10.20;;;-11.50;99.90;;;;;;4350892;33;20188;-74
2021/01/17 03:33:29;;;;;;;26.13;9.17;;;-11.50;99.90;;;;;;4349897;33;20164;-74
2021/01/17 03:35:55;;;;;;;25.57;8.90;;;-11.60;99.90;;;;;;4350216;33;20141;-74
2021/01/17 03:38:22;;;;;;;26.53;8.93;;;-11.60;99.90;;;;;;4351497;33;20212;-73
2021/01/17 03:40:48;;;;;;;24.90;8.97;;;-11.60;99.90;;;;;;4350320;33;20203;-74
2021/01/17 03:43:15;;;;;;;19.67;9.03;;;-11.60;99.90;;;;;;4349548;33;20157;-72
2021/01/17 03:45:42;;;;;;;24.67;9.27;;;-11.60;99.90;;;;;;4349646;33;20195;-73
2021/01/17 03:48:09;;;;;;;22.80;9.60;;;-11.60;99.90;;;;;;4349345;33;20207;-71
2021/01/17 03:50:35;;;;;;;21.70;8.73;;;-11.50;99.90;;;;;;4348647;33;20162;-72
2021/01/17 03:53:02;;;;;;;22.93;8.83;;;-11.60;99.90;;;;;;4349890;33;20360;-72
2021/01/17 03:55:29;;;;;;;21.50;8.50;;;-11.60;99.90;;;;;;4351304;33;20184;-72
2021/01/17 03:57:55;;;;;;;27.83;9.60;;;-11.60;99.90;;;;;;4350712;33;20226;-71
2021/01/17 04:00:22;;;;;;;24.33;9.73;;;-11.60;99.90;;;;;;4349794;33;20148;-72
2021/01/17 04:02:49;;;;;;;24.27;9.43;;;-11.70;99.90;;;;;;4349277;33;20153;-71
2021/01/17 04:05:16;;;;;;;23.97;9.20;;;-11.80;99.90;;;;;;4350418;33;20172;-72
2021/01/17 04:07:42;;;;;;;24.23;8.93;;;-11.70;99.90;;;;;;4351008;33;20333;-71
2021/01/17 04:10:09;;;;;;;24.80;9.47;;;-11.70;99.90;;;;;;4349156;33;20172;-71
2021/01/17 04:12:36;;;;;;;25.37;9.53;;;-11.80;99.90;;;;;;4349694;33;20352;-72
2021/01/17 04:15:03;;;;;;;32.87;9.83;;;-11.80;99.90;;;;;;4349606;33;20408;-72
2021/01/17 04:17:29;;;;;;;22.80;8.87;;;-11.70;99.90;;;;;;4349046;33;20156;-72
2021/01/17 04:19:56;;;;;;;24.60;9.07;;;-11.70;99.90;;;;;;4349620;33;20471;-71
2021/01/17 04:22:23;;;;;;;25.43;8.93;;;-11.70;99.90;;;;;;4349493;33;20237;-71
2021/01/17 04:24:49;;;;;;;24.30;9.07;;;-11.80;99.90;;;;;;4349477;33;20153;-71
2021/01/17 04:27:16;;;;;;;23.50;8.90;;;-11.90;99.90;;;;;;4349381;33;20170;-71
2021/01/17 04:29:43;;;;;;;28.03;9.43;;;-11.90;99.90;;;;;;4349416;33;20163;-71
2021/01/17 04:32:10;;;;;;;25.93;8.83;;;-11.90;99.90;;;;;;4348958;33;20211;-71
2021/01/17 04:34:36;;;;;;;21.90;8.60;;;-12.00;99.90;;;;;;4349070;33;20450;-72
2021/01/17 04:37:03;;;;;;;22.53;9.73;;;-11.90;99.90;;;;;;4349073;33;20168;-71
2021/01/17 04:39:30;;;;;;;31.90;9.77;;;-11.90;99.90;;;;;;4349379;33;20165;-72
2021/01/17 04:41:57;;;;;;;31.53;9.17;;;-12.00;99.90;;;;;;4348876;33;20226;-72
2021/01/17 04:44:35;;;;;;;26.80;9.47;;;-11.90;99.90;;;;;;4349821;33;20466;-72
2021/01/17 04:47:04;;;;;;;23.33;8.83;;;-11.90;99.90;;;;;;4349792;33;20563;-71
2021/01/17 04:49:40;;;;;;;33.73;10.27;;;-11.90;99.90;;;;;;4348976;33;20214;-72
2021/01/17 04:52:13;;;;;;;25.27;9.00;;;-11.80;99.90;;;;;;4350774;33;20199;-71
2021/01/17 04:54:41;;;;;;;25.17;9.50;;;-11.80;99.90;;;;;;4348709;33;20152;-72
2021/01/17 04:57:15;;;;;;;24.13;9.53;;;-11.80;99.90;;;;;;4349072;33;20470;-72
2021/01/17 05:00:02;;;;;;;31.10;9.70;;;-11.80;99.90;;;;;;4348680;33;20194;-72
2021/01/17 05:03:09;;;;;;;21.63;8.87;;;-11.80;99.90;;;;;;4349701;33;20164;-71
2021/01/17 05:05:47;;;;;;;19.23;8.80;;;-11.70;99.90;;;;;;4350536;33;20494;-72
2021/01/17 05:08:26;;;;;;;24.97;10.10;;;-11.70;99.90;;;;;;4349324;33;20168;-72
2021/01/17 05:11:15;;;;;;;32.90;10.40;;;-11.80;99.90;;;;;;4348607;33;20409;-71
2021/01/17 05:13:58;;;;;;;26.80;9.37;;;-11.80;99.90;;;;;;4350370;33;20153;-72
2021/01/17 05:16:36;;;;;;;22.77;8.50;;;-11.80;99.90;;;;;;4349566;33;20180;-71
2021/01/17 05:19:03;;;;;;;25.27;8.87;;;-11.70;99.90;;;;;;4348592;33;20403;-72
2021/01/17 05:21:32;;;;;;;24.33;9.10;;;-11.70;99.90;;;;;;4349320;33;20179;-71
2021/01/17 05:24:00;;;;;;;24.07;9.30;;;-11.70;99.90;;;;;;4350005;33;20152;-72
2021/01/17 05:26:27;;;;;;;24.93;10.10;;;-11.70;99.90;;;;;;4349055;33;20394;-71
2021/01/17 05:28:54;;;;;;;26.47;10.17;;;-11.90;99.90;;;;;;4348679;33;20207;-71
2021/01/17 05:31:25;;;;;;;25.40;9.60;;;-11.90;99.90;;;;;;4348602;33;20157;-72
2021/01/17 05:33:57;;;;;;;21.50;9.17;;;-11.90;99.90;;;;;;4349189;33;20149;-72
2021/01/17 05:36:24;;;;;;;29.23;10.43;;;-11.80;99.90;;;;;;4348923;33;20461;-72
2021/01/17 05:39:01;;;;;;;26.40;10.07;;;-11.80;99.90;;;;;;4351094;33;20389;-72
2021/01/17 05:41:28;;;;;;;30.73;9.60;;;-11.80;99.90;;;;;;4351874;33;20389;-72
2021/01/17 05:43:55;;;;;;;23.47;9.73;;;-11.60;99.90;;;;;;4352047;33;20145;-72
2021/01/17 05:46:21;;;;;;;25.50;9.50;;;-11.50;99.90;;;;;;4351561;33;20191;-72
2021/01/17 05:48:48;;;;;;;24.73;9.60;;;-11.40;99.90;;;;;;4351649;33;20170;-72
2021/01/17 05:51:41;;;;;;;23.60;10.00;;;-11.30;99.90;;;;;;4350335;33;20160;-72
2021/01/17 05:54:09;;;;;;;23.20;9.53;;;-11.30;99.90;;;;;;4350456;33;20434;-74
2021/01/17 05:56:37;;;;;;;29.67;10.07;;;-11.40;99.90;;;;;;4351580;33;20200;-72
2021/01/17 05:59:04;;;;;;;28.70;9.87;;;-11.30;99.90;;;;;;4352240;33;20470;-72
2021/01/17 06:01:34;;;;;;;28.37;11.17;;;-11.20;99.90;;;;;;4351320;33;20208;-72
2021/01/17 06:04:10;;;;;;;33.73;10.17;;;-11.10;99.90;;;;;;4351466;33;20172;-72
2021/01/17 06:06:37;;;;;;;23.73;9.10;;;-11.20;99.90;;;;;;4350944;33;20206;-72
2021/01/17 06:09:05;;;;;;;23.77;9.40;;;-11.30;99.90;;;;;;4351055;33;20171;-72
2021/01/17 06:11:32;;;;;;;27.00;10.50;;;-11.20;99.90;;;;;;4351278;33;20148;-72
2021/01/17 06:14:01;;;;;;;28.13;10.53;;;-11.40;99.90;;;;;;4350821;33;20202;-72
2021/01/17 06:16:40;;;;;;;29.00;9.70;;;-11.40;99.90;;;;;;4350686;33;20471;-74
2021/01/17 06:19:12;;;;;;;27.73;9.93;;;-11.40;99.90;;;;;;4351543;33;20522;-74
2021/01/17 06:21:39;;;;;;;24.03;9.30;;;-11.30;99.90;;;;;;4351112;33;20478;-71
2021/01/17 06:24:09;;;;;;;31.70;10.07;;;-11.20;99.90;;;;;;4351389;33;20433;-73
2021/01/17 06:26:37;;;;;;;28.77;10.47;;;-11.20;99.90;;;;;;4351388;33;20195;-72
2021/01/17 06:29:11;;;;;;;27.63;10.50;;;-11.10;99.90;;;;;;4350535;33;20255;-73
2021/01/17 06:31:39;;;;;;;26.17;9.67;;;-11.10;99.90;;;;;;4350500;33;20235;-72
2021/01/17 06:34:14;;;;;;;25.13;9.67;;;-11.10;99.90;;;;;;4350595;33;20430;-72
2021/01/17 06:36:43;;;;;;;27.67;10.30;;;-11.30;99.90;;;;;;4351180;33;20197;-72
2021/01/17 06:39:21;;;;;;;29.23;10.33;;;-11.20;99.90;;;;;;4350355;33;20175;-72
2021/01/17 06:41:49;;;;;;;25.37;10.47;;;-11.20;99.90;;;;;;4351042;33;20366;-73
2021/01/17 06:44:16;;;;;;;26.10;9.50;;;-11.30;99.90;;;;;;4350275;33;20483;-72
2021/01/17 06:46:46;;;;;;;23.97;9.33;;;-11.20;99.90;;;;;;4350273;33;20144;-73
2021/01/17 06:49:20;;;;;;;25.43;9.63;;;-11.20;99.90;;;;;;4351187;33;20378;-72
2021/01/17 06:51:48;;;;;;;26.60;9.73;;;-11.20;99.90;;;;;;4351018;33;20148;-73
2021/01/17 06:54:44;;;;;;;28.13;9.97;;;-11.30;99.90;;;;;;4351180;33;20153;-72
2021/01/17 06:57:11;;;;;;;31.17;11.37;;;-11.20;99.90;;;;;;4304372;33;20204;-72
2021/01/17 06:59:48;;;;;;;28.73;9.70;;;-11.20;99.90;;;;;;4304933;33;20157;-73
2021/01/17 07:02:17;;;;;;;27.00;9.57;;;-11.20;99.90;;;;;;4304671;33;20627;-72
2021/01/17 07:04:56;;;;;;;29.53;9.93;;;-11.20;99.90;;;;;;4303856;33;20235;-72
2021/01/17 07:07:31;;;;;;;27.27;9.57;;;-11.20;99.90;;;;;;4291596;33;20185;-72
2021/01/17 07:10:03;;;;;;;31.83;9.77;;;-11.30;99.90;;;;;;4305008;33;20200;-72
2021/01/17 07:12:57;;;;;;;27.47;9.70;;;-11.30;99.90;;;;;;4304444;33;20213;-73
2021/01/17 07:15:28;;;;;;;30.60;9.27;;;-11.20;99.90;;;;;;4304111;33;20189;-73
2021/01/17 07:18:04;;;;;;;29.83;9.67;;;-11.20;99.90;;;;;;4303459;33;20203;-72
2021/01/17 07:20:34;;;;;;;30.50;9.77;;;-11.30;99.90;;;;;;4304674;33;20521;-72
2021/01/17 07:23:03;;;;;;;32.40;10.97;;;-11.30;99.90;;;;;;4303723;33;20173;-72
2021/01/17 07:25:32;;;;;;;29.23;10.20;;;-11.30;99.90;;;;;;4304906;33;20154;-72
2021/01/17 07:28:16;;;;;;;24.77;9.00;;;-11.20;99.90;;;;;;4303814;33;20408;-73
2021/01/17 07:31:05;;;;;;;25.80;10.17;;;-11.20;99.90;;;;;;4305089;33;20232;-73
2021/01/17 07:33:36;;;;;;;31.97;10.87;;;-11.30;99.90;;;;;;4311944;33;20419;-73
2021/01/17 07:36:05;;;;;;;25.40;9.83;;;-11.20;99.90;;;;;;4336090;33;20149;-73
2021/01/17 07:38:37;;;;;;;26.87;9.27;;;-11.10;99.90;;;;;;4335216;33;20157;-73
2021/01/17 07:41:06;;;;;;;26.27;9.10;;;-11.20;99.90;;;;;;4335956;33;20218;-73
2021/01/17 07:43:37;;;;;;;24.37;9.27;;;-11.20;99.90;;;;;;4335245;33;20177;-80
2021/01/17 07:46:16;;;;;;;25.07;9.23;;;-11.20;99.90;;;;;;4335704;33;20148;-72
2021/01/17 07:48:45;;;;;;;26.73;9.20;;;-11.20;99.90;;;;;;4335189;33;20186;-72
2021/01/17 07:51:14;;;;;;;28.30;9.87;;;-11.10;99.90;;;;;;4335178;33;20167;-72
2021/01/17 07:54:11;;;;;;;27.60;10.03;;;-11.10;99.90;;;;;;4335059;33;20188;-71
2021/01/17 07:56:38;;;;;;;26.17;10.17;;;-11.20;99.90;;;;;;4334623;33;20273;-73
2021/01/17 07:59:07;;;;;;;29.27;10.47;;;-11.30;99.90;;;;;;4335063;33;20161;-72
2021/01/17 08:01:34;;;;;;;22.50;9.60;;;-11.20;99.90;;;;;;4334744;33;20231;-72
2021/01/17 08:04:03;;;;;;;31.03;10.73;;;-11.10;99.90;;;;;;4334992;33;20140;-72
2021/01/17 08:06:36;;;;;;;26.73;10.17;;;-11.00;99.90;;;;;;4335220;33;20184;-71
2021/01/17 08:09:03;;;;;;;26.43;10.00;;;-10.80;99.90;;;;;;4334431;33;20169;-72
2021/01/17 08:11:45;;;;;;;24.90;10.47;;;-10.80;99.90;;;;;;4334971;33;20171;-72
2021/01/17 08:14:26;;;;;;;27.80;10.30;;;-10.70;99.90;;;;;;4333961;33;20168;-72
2021/01/17 08:17:19;;;;;;;25.67;10.50;;;-10.80;99.90;;;;;;4334890;33;20513;-74
2021/01/17 08:20:02;;;;;;;27.67;10.80;;;-10.70;99.90;;;;;;4332706;33;20173;-74
2021/01/17 08:22:28;;;;;;;30.17;10.23;;;-10.60;99.90;;;;;;4344612;33;20580;-72
2021/01/17 08:25:03;;;;;;;25.73;9.53;;;-10.40;99.90;;;;;;4349929;33;20149;-73
2021/01/17 08:27:33;;;;;;;25.10;9.97;;;-10.40;99.90;;;;;;4350099;33;20155;-72
2021/01/17 08:30:08;;;;;;;27.73;10.17;;;-10.30;99.90;;;;;;4349745;33;20206;-72
2021/01/17 08:32:35;;;;;;;27.30;10.93;;;-10.20;99.30;;;;;;4348980;33;20231;-72
2021/01/17 08:35:13;;;;;;;27.53;10.30;;;-10.30;98.40;;;;;;4349287;33;20149;-72
2021/01/17 08:37:44;;;;;;;28.50;10.60;;;-10.20;98.50;;;;;;4349772;33;20458;-72
2021/01/17 08:40:15;;;;;;;27.07;9.77;;;-10.10;98.40;;;;;;4348021;33;20172;-72
2021/01/17 08:42:53;;;;;;;28.23;10.37;;;-10.10;98.10;;;;;;4349887;33;20157;-72
2021/01/17 08:45:22;;;;;;;27.10;10.17;;;-10.00;98.00;;;;;;4349124;33;20160;-72
2021/01/17 08:47:58;;;;;;;29.10;10.30;;;-10.00;97.90;;;;;;4338991;33;20194;-72
2021/01/17 08:50:31;;;;;;;26.50;9.93;;;-9.90;97.80;;;;;;4348896;33;20195;-72
2021/01/17 08:53:10;;;;;;;29.40;10.10;;;-9.80;97.50;;;;;;4344992;33;20167;-72
2021/01/17 08:55:38;;;;;;;27.50;10.37;;;-9.80;97.10;;;;;;4344760;33;20183;-72
2021/01/17 08:58:05;;;;;;;31.10;11.70;;;-9.80;97.00;;;;;;4349405;33;20495;-72
2021/01/17 09:00:53;;;;;;;30.07;11.33;;;-9.80;97.00;;;;;;4348821;33;20173;-72
2021/01/17 09:03:26;;;;;;;30.50;11.67;;;-9.70;97.10;;;;;;4350033;33;20219;-72
2021/01/17 09:05:57;;;;;;;30.97;11.70;;;-9.70;96.80;;;;;;4348875;33;20160;-72
2021/01/17 09:08:25;;;;;;;26.37;10.67;;;-9.50;96.70;;;;;;4348927;33;20477;-72
2021/01/17 09:10:52;;;;;;;31.10;12.33;;;-9.40;97.00;;;;;;4349283;33;20195;-72
2021/01/17 09:13:20;;;;;;;29.50;12.07;;;-9.30;97.10;;;;;;4350683;33;20214;-73
2021/01/17 09:15:57;;;;;;;30.63;11.80;;;-9.20;96.70;;;;;;4352396;33;20155;-72
2021/01/17 09:18:26;;;;;;;28.80;11.57;;;-9.40;96.20;;;;;;4351562;33;20214;-72
2021/01/17 09:20:54;;;;;;;29.43;11.67;;;-9.40;96.60;;;;;;4350528;33;20195;-73
2021/01/17 09:23:22;;;;;;;31.10;12.37;;;-9.50;96.40;;;;;;4352492;33;20561;-73
2021/01/17 09:25:58;;;;;;;30.60;12.13;;;-9.40;96.50;;;;;;4352521;33;20148;-72
2021/01/17 09:28:27;;;;;;;30.73;11.57;;;-9.40;95.90;;;;;;4349064;33;20452;-72
2021/01/17 09:30:55;;;;;;;31.67;11.63;;;-9.40;95.80;;;;;;4338836;33;20161;-72
2021/01/17 09:33:22;;;;;;;31.90;11.20;;;-9.20;95.70;;;;;;4338994;33;20271;-72
2021/01/17 09:35:50;;;;;;;26.63;12.00;;;-9.20;95.40;;;;;;4345071;33;20156;-72
2021/01/17 09:38:22;;;;;;;31.63;12.20;;;-9.10;95.70;;;;;;4352565;33;20156;-72
2021/01/17 09:40:55;;;;;;;29.03;11.90;;;-9.20;95.70;;;;;;4346660;33;20172;-72
2021/01/17 09:43:22;;;;;;;33.23;12.93;;;-9.20;95.80;;;;;;4341268;33;20164;-72
2021/01/17 09:45:50;;;;;;;36.73;12.97;;;-9.10;96.10;;;;;;4336964;33;20149;-72
2021/01/17 09:48:17;;;;;;;29.63;12.63;;;-9.10;95.70;;;;;;4345136;33;20187;-72
2021/01/17 09:50:44;;;;;;;34.30;13.47;;;-9.30;95.50;;;;;;4349748;33;20196;-72
2021/01/17 09:53:11;;;;;;;43.20;14.17;;;-9.30;95.70;;;;;;4344334;33;20153;-72
2021/01/17 09:55:42;;;;;;;36.77;14.00;;;-9.40;95.50;;;;;;4339910;33;20192;-72
2021/01/17 09:58:11;;;;;;;39.03;14.03;;;-9.30;95.00;;;;;;4342433;33;20386;-72
2021/01/17 10:00:39;;;;;;;39.97;14.30;;;-9.20;94.60;;;;;;4336620;33;20399;-72
2021/01/17 10:03:10;;;;;;;40.23;15.63;;;-9.30;93.90;;;;;;4338541;33;20215;-72
2021/01/17 10:05:38;;;;;;;41.13;14.50;;;-9.70;94.40;;;;;;4349029;33;20536;-72
2021/01/17 10:08:10;;;;;;;37.13;14.43;;;-9.80;94.50;;;;;;4352446;33;20184;-72
2021/01/17 10:10:38;;;;;;;38.43;14.73;;;-9.90;94.70;;;;;;4351450;33;20156;-72
2021/01/17 10:13:07;;;;;;;38.13;15.43;;;-10.10;94.30;;;;;;4351428;33;20189;-72
2021/01/17 10:15:40;;;;;;;37.23;14.40;;;-10.10;94.50;;;;;;4349601;33;20157;-72
2021/01/17 10:18:08;;;;;;;37.53;14.70;;;-10.20;94.60;;;;;;4342818;33;20442;-72
2021/01/17 10:20:38;;;;;;;42.17;15.50;;;-10.10;94.70;;;;;;4348396;33;20200;-72
2021/01/17 10:23:06;;;;;;;36.00;13.97;;;-10.40;94.50;;;;;;4349437;33;20577;-72
2021/01/17 10:25:34;;;;;;;42.80;15.40;;;-10.40;95.00;;;;;;4350239;33;20474;-72
2021/01/17 10:28:03;;;;;;;42.20;13.67;;;-10.60;94.90;;;;;;4351241;33;20148;-72
2021/01/17 10:30:34;;;;;;;37.47;14.73;;;-10.60;94.90;;;;;;4351003;33;20153;-72
2021/01/17 10:33:10;;;;;;;40.63;15.50;;;-10.60;95.20;;;;;;4350789;33;20183;-72
2021/01/17 10:35:47;;;;;;;40.40;14.40;;;-10.50;95.20;;;;;;4351176;33;20419;-72
2021/01/17 10:38:17;;;;;;;38.17;13.40;;;-10.30;94.80;;;;;;4352561;33;20541;-72
2021/01/17 10:40:45;;;;;;;36.77;14.20;;;-10.30;94.50;;;;;;4351201;33;20157;-73
2021/01/17 10:43:32;;;;;;;33.67;13.17;;;-10.30;94.50;;;;;;4350734;33;20148;-73
2021/01/17 10:46:15;;;;;;;41.37;15.00;;;-10.10;94.90;;;;;;4350663;33;20203;-73
2021/01/17 10:48:59;;;;;;;39.00;15.60;;;-10.10;94.40;;;;;;4352199;33;20240;-73
2021/01/17 10:51:35;;;;;;;37.27;14.67;;;-10.20;94.20;;;;;;4350723;33;20346;-73
2021/01/17 10:54:05;;;;;;;39.73;14.70;;;-10.20;95.00;;;;;;4351530;33;20198;-73
2021/01/17 10:56:32;;;;;;;41.03;15.07;;;-10.20;94.50;;;;;;4349613;33;20148;-73
2021/01/17 10:59:01;;;;;;;39.40;14.30;;;-10.40;95.00;;;;;;4350424;33;20441;-73
2021/01/17 11:01:35;;;;;;;36.57;14.07;;;-10.30;95.20;;;;;;4351153;33;20148;-73
2021/01/17 11:04:02;;;;;;;45.57;14.80;;;-10.20;94.60;;;;;;4351565;33;20201;-73
2021/01/17 11:06:29;;;;;;;41.10;14.13;;;-10.30;94.60;;;;;;4350026;33;20405;-73
2021/01/17 11:08:58;;;;;;;37.70;15.07;;;-10.20;94.50;;;;;;4350512;33;20238;-73
2021/01/17 11:11:33;;;;;;;34.07;13.10;;;-10.10;94.20;;;;;;4350680;33;20185;-72
2021/01/17 11:14:04;;;;;;;36.93;13.67;;;-10.10;94.60;;;;;;4347820;33;20165;-72
2021/01/17 11:16:37;;;;;;;39.13;14.57;;;-10.10;95.30;;;;;;4346459;33;20534;-72
2021/01/17 11:19:12;;;;;;;40.77;14.50;;;-10.00;95.30;;;;;;4350647;33;20208;-71
2021/01/17 11:21:43;;;;;;;34.40;13.57;;;-10.00;94.80;;;;;;4348598;33;20402;-78
2021/01/17 11:24:11;;;;;;;37.83;14.40;;;-9.70;94.60;;;;;;4343496;33;20149;-72
2021/01/17 11:26:38;;;;;;;40.13;13.77;;;-9.70;94.40;;;;;;4335703;33;20149;-72
2021/01/17 11:29:12;;;;;;;38.13;14.00;;;-9.70;94.50;;;;;;4335433;33;20142;-72
2021/01/17 11:31:43;;;;;;;33.90;13.17;;;-9.50;94.40;;;;;;4337067;33;20204;-72
2021/01/17 11:34:15;;;;;;;37.03;13.07;;;-9.50;94.20;;;;;;4335985;33;20159;-72
2021/01/17 11:36:42;;;;;;;34.63;13.17;;;-9.30;94.20;;;;;;4335157;33;20152;-71
2021/01/17 11:39:09;;;;;;;41.47;13.47;;;-9.20;93.40;;;;;;4336985;33;20177;-71
2021/01/17 11:41:40;;;;;;;31.60;13.17;;;-9.10;93.30;;;;;;4334648;33;20151;-72
2021/01/17 11:44:12;;;;;;;33.23;12.63;;;-9.10;92.70;;;;;;4335991;33;20501;-71
2021/01/17 11:46:40;;;;;;;36.93;13.80;;;-9.20;92.40;;;;;;4341412;33;20161;-71
2021/01/17 11:49:07;;;;;;;34.00;12.93;;;-9.10;92.50;;;;;;4350125;33;20175;-71
2021/01/17 11:51:34;;;;;;;30.47;13.63;;;-9.00;92.60;;;;;;4349781;33;20172;-72
2021/01/17 11:54:10;;;;;;;38.60;14.13;;;-8.90;92.70;;;;;;4340451;33;20455;-72
2021/01/17 11:56:37;;;;;;;34.97;13.70;;;-8.80;92.90;;;;;;4335736;33;20148;-71
2021/01/17 11:59:04;;;;;;;34.77;13.53;;;-8.70;92.80;;;;;;4347340;33;20503;-72
2021/01/17 12:01:31;;;;;;;37.93;15.53;;;-8.80;92.40;;;;;;4350307;33;20199;-72
2021/01/17 12:04:03;;;;;;;36.17;13.63;;;-8.60;92.50;;;;;;4349636;33;20148;-72
2021/01/17 12:06:30;;;;;;;40.30;15.57;;;-8.60;92.10;;;;;;4349424;33;20208;-72
2021/01/17 12:09:06;;;;;;;39.30;14.47;;;-8.50;91.80;;;;;;4343573;33;20195;-71
2021/01/17 12:11:38;;;;;;;38.80;14.63;;;-8.40;92.30;;;;;;4334086;33;20415;-71
2021/01/17 12:14:06;;;;;;;35.57;13.37;;;-8.50;92.00;;;;;;4340248;33;20195;-71
2021/01/17 12:16:40;;;;;;;37.50;13.73;;;-8.50;91.70;;;;;;4341893;33;20494;-71
2021/01/17 12:19:08;;;;;;;40.60;14.07;;;-8.70;91.90;;;;;;4344185;33;20167;-71
2021/01/17 12:21:35;;;;;;;37.17;14.23;;;-8.90;92.20;;;;;;4341455;33;20223;-71
2021/01/17 12:24:04;;;;;;;35.27;13.53;;;-8.60;92.60;;;;;;4335576;33;20179;-71
2021/01/17 12:26:31;;;;;;;36.07;13.47;;;-8.80;91.80;;;;;;4334206;33;20149;-71
2021/01/17 12:28:58;;;;;;;38.93;14.03;;;-8.60;91.70;;;;;;4334608;33;20165;-71
2021/01/17 12:31:25;;;;;;;37.13;13.83;;;-8.50;91.60;;;;;;4334966;33;20203;-71
2021/01/17 12:33:53;;;;;;;37.17;13.50;;;-8.60;91.70;;;;;;4334530;33;20167;-71
2021/01/17 12:36:22;;;;;;;37.10;14.37;;;-8.60;92.10;;;;;;4334605;33;20168;-71
2021/01/17 12:38:50;;;;;;;33.50;13.87;;;-8.50;92.10;;;;;;4334081;33;20187;-71
2021/01/17 12:41:31;;;;;;;37.13;14.70;;;-8.40;92.40;;;;;;4334245;33;20175;-71